North Liberty, Iowa
Current Conditions -  °F | °C
As of 12:52 PM on Saturday 25 Oct 2014 (Local Time) from KIOW Reporting Station
Clear Clear  
Wind Chill: 68°   Ceiling: Unl
Heat Index: 68°   Visibility: 10mi
Dew Point: 41°   Wind: 10mph
Humidity: 37%   Direction: 330°NNW
Pressure: 30.07"   Gusts: 16mph
Location:  41.75°N, 91.6°W
Report Text: KIOW 251752Z AUTO 33009G14KT 10SM CLR 20/05 A3007 RMK AO2 RAB15RAEMM SLP181 P0000 60000 T02000050 10200 20106 50001 PWINO $
Loading
Personal Weather Stations






























Interactive Weather Map
Tropical Storm Tracking
New forecast layout! Learn more

10-Day Weather Forecast

Advertisements
Track Severe Weather on mobile